sensor_id;sensor_type;location;lat;lon;timestamp;P1;durP1;ratioP1;P2;durP2;ratioP2
52940;SDS011;62001;53.366;6.636;2022-12-07T00:01:19;2.30;;;1.00;;
52940;SDS011;62001;53.366;6.636;2022-12-07T00:03:49;7.67;;;1.07;;
52940;SDS011;62001;53.366;6.636;2022-12-07T00:06:18;6.03;;;0.93;;
52940;SDS011;62001;53.366;6.636;2022-12-07T00:08:44;11.50;;;1.47;;
52940;SDS011;62001;53.366;6.636;2022-12-07T00:11:12;6.97;;;1.13;;
52940;SDS011;62001;53.366;6.636;2022-12-07T00:13:43;8.17;;;1.13;;
52940;SDS011;62001;53.366;6.636;2022-12-07T00:16:11;7.10;;;1.27;;
52940;SDS011;62001;53.366;6.636;2022-12-07T00:18:42;9.73;;;1.40;;
52940;SDS011;62001;53.366;6.636;2022-12-07T00:21:10;13.80;;;1.70;;
52940;SDS011;62001;53.366;6.636;2022-12-07T00:23:36;17.87;;;2.00;;
52940;SDS011;62001;53.366;6.636;2022-12-07T00:26:10;13.33;;;1.43;;
52940;SDS011;62001;53.366;6.636;2022-12-07T00:28:39;11.63;;;1.50;;
52940;SDS011;62001;53.366;6.636;2022-12-07T00:31:07;13.60;;;1.80;;
52940;SDS011;62001;53.366;6.636;2022-12-07T00:33:37;9.63;;;1.53;;
52940;SDS011;62001;53.366;6.636;2022-12-07T00:36:04;11.37;;;1.50;;
52940;SDS011;62001;53.366;6.636;2022-12-07T00:38:32;8.23;;;1.37;;
52940;SDS011;62001;53.366;6.636;2022-12-07T00:41:01;13.37;;;1.80;;
52940;SDS011;62001;53.366;6.636;2022-12-07T00:43:29;22.47;;;1.63;;
52940;SDS011;62001;53.366;6.636;2022-12-07T00:45:55;10.73;;;1.60;;
52940;SDS011;62001;53.366;6.636;2022-12-07T00:48:21;8.77;;;1.50;;
52940;SDS011;62001;53.366;6.636;2022-12-07T00:50:47;8.50;;;1.50;;
52940;SDS011;62001;53.366;6.636;2022-12-07T00:53:13;9.07;;;1.40;;
52940;SDS011;62001;53.366;6.636;2022-12-07T00:55:39;11.97;;;1.70;;
52940;SDS011;62001;53.366;6.636;2022-12-07T00:58:06;9.47;;;1.37;;
52940;SDS011;62001;53.366;6.636;2022-12-07T01:00:36;9.07;;;1.35;;
52940;SDS011;62001;53.366;6.636;2022-12-07T01:03:03;7.37;;;1.30;;
52940;SDS011;62001;53.366;6.636;2022-12-07T01:05:30;6.80;;;1.10;;
52940;SDS011;62001;53.366;6.636;2022-12-07T01:07:56;7.90;;;1.40;;
52940;SDS011;62001;53.366;6.636;2022-12-07T01:10:22;6.07;;;1.07;;
52940;SDS011;62001;53.366;6.636;2022-12-07T01:12:48;5.87;;;1.10;;
52940;SDS011;62001;53.366;6.636;2022-12-07T01:15:14;4.40;;;1.27;;
52940;SDS011;62001;53.366;6.636;2022-12-07T01:17:40;8.87;;;1.57;;
52940;SDS011;62001;53.366;6.636;2022-12-07T01:20:06;8.20;;;1.37;;
52940;SDS011;62001;53.366;6.636;2022-12-07T01:22:36;7.40;;;1.03;;
52940;SDS011;62001;53.366;6.636;2022-12-07T01:25:05;6.77;;;1.00;;
52940;SDS011;62001;53.366;6.636;2022-12-07T01:27:32;7.00;;;1.80;;
52940;SDS011;62001;53.366;6.636;2022-12-07T01:29:58;10.57;;;1.30;;
52940;SDS011;62001;53.366;6.636;2022-12-07T01:32:24;8.93;;;1.67;;
52940;SDS011;62001;53.366;6.636;2022-12-07T01:34:50;8.47;;;1.27;;
52940;SDS011;62001;53.366;6.636;2022-12-07T01:37:16;9.63;;;1.43;;
52940;SDS011;62001;53.366;6.636;2022-12-07T01:39:41;13.40;;;1.57;;
52940;SDS011;62001;53.366;6.636;2022-12-07T01:42:10;10.37;;;1.40;;
52940;SDS011;62001;53.366;6.636;2022-12-07T01:47:40;10.63;;;1.20;;
52940;SDS011;62001;53.366;6.636;2022-12-07T01:50:07;9.57;;;1.00;;
52940;SDS011;62001;53.366;6.636;2022-12-07T01:52:33;4.97;;;1.30;;
52940;SDS011;62001;53.366;6.636;2022-12-07T01:55:06;6.93;;;0.93;;
52940;SDS011;62001;53.366;6.636;2022-12-07T01:57:35;8.50;;;1.03;;
52940;SDS011;62001;53.366;6.636;2022-12-07T02:00:05;7.57;;;0.90;;
52940;SDS011;62001;53.366;6.636;2022-12-07T02:02:33;7.93;;;1.43;;
52940;SDS011;62001;53.366;6.636;2022-12-07T02:05:03;14.05;;;1.45;;
52940;SDS011;62001;53.366;6.636;2022-12-07T02:07:29;15.33;;;1.97;;
52940;SDS011;62001;53.366;6.636;2022-12-07T02:09:57;13.97;;;1.40;;
52940;SDS011;62001;53.366;6.636;2022-12-07T02:18:09;13.83;;;1.80;;
52940;SDS011;62001;53.366;6.636;2022-12-07T02:29:23;9.40;;;1.87;;
52940;SDS011;62001;53.366;6.636;2022-12-07T02:34:48;11.30;;;1.67;;
52940;SDS011;62001;53.366;6.636;2022-12-07T02:37:19;7.57;;;1.80;;
52940;SDS011;62001;53.366;6.636;2022-12-07T02:43:14;6.07;;;1.10;;
52940;SDS011;62001;53.366;6.636;2022-12-07T02:45:44;16.07;;;2.00;;
52940;SDS011;62001;53.366;6.636;2022-12-07T02:48:12;11.97;;;1.63;;
52940;SDS011;62001;53.366;6.636;2022-12-07T02:50:50;15.30;;;1.50;;
52940;SDS011;62001;53.366;6.636;2022-12-07T02:53:31;14.30;;;1.73;;
52940;SDS011;62001;53.366;6.636;2022-12-07T03:06:56;15.73;;;1.87;;
52940;SDS011;62001;53.366;6.636;2022-12-07T03:09:32;5.93;;;1.40;;
52940;SDS011;62001;53.366;6.636;2022-12-07T03:12:09;5.47;;;1.30;;
52940;SDS011;62001;53.366;6.636;2022-12-07T03:14:45;7.23;;;1.30;;
52940;SDS011;62001;53.366;6.636;2022-12-07T03:17:19;10.30;;;1.50;;
52940;SDS011;62001;53.366;6.636;2022-12-07T03:19:51;12.70;;;1.80;;
52940;SDS011;62001;53.366;6.636;2022-12-07T03:22:21;8.57;;;1.27;;
52940;SDS011;62001;53.366;6.636;2022-12-07T03:24:52;5.13;;;1.10;;
52940;SDS011;62001;53.366;6.636;2022-12-07T03:27:22;5.70;;;1.07;;
52940;SDS011;62001;53.366;6.636;2022-12-07T03:29:50;3.97;;;0.83;;
52940;SDS011;62001;53.366;6.636;2022-12-07T03:35:09;19.43;;;1.27;;
52940;SDS011;62001;53.366;6.636;2022-12-07T03:37:57;11.53;;;1.20;;
52940;SDS011;62001;53.366;6.636;2022-12-07T03:43:00;10.53;;;1.40;;
52940;SDS011;62001;53.366;6.636;2022-12-07T03:45:37;6.20;;;0.90;;
52940;SDS011;62001;53.366;6.636;2022-12-07T03:50:48;4.57;;;0.87;;
52940;SDS011;62001;53.366;6.636;2022-12-07T03:53:44;6.17;;;0.60;;
52940;SDS011;62001;53.366;6.636;2022-12-07T03:56:16;3.50;;;0.77;;
52940;SDS011;62001;53.366;6.636;2022-12-07T03:58:43;9.47;;;1.30;;
52940;SDS011;62001;53.366;6.636;2022-12-07T04:01:09;12.97;;;1.30;;
52940;SDS011;62001;53.366;6.636;2022-12-07T04:03:36;6.07;;;1.30;;
52940;SDS011;62001;53.366;6.636;2022-12-07T04:06:02;8.20;;;1.50;;
52940;SDS011;62001;53.366;6.636;2022-12-07T04:08:28;9.43;;;1.50;;
52940;SDS011;62001;53.366;6.636;2022-12-07T04:10:54;11.00;;;1.40;;
52940;SDS011;62001;53.366;6.636;2022-12-07T04:13:20;10.30;;;1.53;;
52940;SDS011;62001;53.366;6.636;2022-12-07T04:15:45;15.30;;;2.10;;
52940;SDS011;62001;53.366;6.636;2022-12-07T04:18:11;11.80;;;1.77;;
52940;SDS011;62001;53.366;6.636;2022-12-07T04:20:37;10.77;;;1.80;;
52940;SDS011;62001;53.366;6.636;2022-12-07T04:23:03;11.27;;;1.67;;
52940;SDS011;62001;53.366;6.636;2022-12-07T04:25:29;11.30;;;1.70;;
52940;SDS011;62001;53.366;6.636;2022-12-07T04:27:54;14.50;;;1.73;;
52940;SDS011;62001;53.366;6.636;2022-12-07T04:30:20;10.47;;;1.50;;
52940;SDS011;62001;53.366;6.636;2022-12-07T04:32:47;3.97;;;1.17;;
52940;SDS011;62001;53.366;6.636;2022-12-07T04:35:12;5.17;;;0.97;;
52940;SDS011;62001;53.366;6.636;2022-12-07T04:37:38;4.83;;;0.60;;
52940;SDS011;62001;53.366;6.636;2022-12-07T04:40:06;5.27;;;1.07;;
52940;SDS011;62001;53.366;6.636;2022-12-07T04:42:33;4.53;;;1.13;;
52940;SDS011;62001;53.366;6.636;2022-12-07T04:44:59;2.40;;;0.90;;
52940;SDS011;62001;53.366;6.636;2022-12-07T04:47:25;6.77;;;1.27;;
52940;SDS011;62001;53.366;6.636;2022-12-07T04:49:51;6.90;;;1.27;;
52940;SDS011;62001;53.366;6.636;2022-12-07T04:52:16;6.90;;;1.00;;
52940;SDS011;62001;53.366;6.636;2022-12-07T04:54:42;5.60;;;1.10;;
52940;SDS011;62001;53.366;6.636;2022-12-07T04:57:08;10.47;;;1.30;;
52940;SDS011;62001;53.366;6.636;2022-12-07T04:59:34;9.17;;;1.33;;
52940;SDS011;62001;53.366;6.636;2022-12-07T05:01:59;11.23;;;1.40;;
52940;SDS011;62001;53.366;6.636;2022-12-07T05:04:25;10.40;;;1.30;;
52940;SDS011;62001;53.366;6.636;2022-12-07T05:06:51;13.37;;;1.60;;
52940;SDS011;62001;53.366;6.636;2022-12-07T05:09:17;6.60;;;1.47;;
52940;SDS011;62001;53.366;6.636;2022-12-07T05:11:43;13.17;;;1.77;;
52940;SDS011;62001;53.366;6.636;2022-12-07T05:14:16;10.80;;;1.50;;
52940;SDS011;62001;53.366;6.636;2022-12-07T05:16:44;10.47;;;1.60;;
52940;SDS011;62001;53.366;6.636;2022-12-07T05:19:11;9.83;;;1.83;;
52940;SDS011;62001;53.366;6.636;2022-12-07T05:21:37;9.17;;;1.57;;
52940;SDS011;62001;53.366;6.636;2022-12-07T05:24:04;7.73;;;1.17;;
52940;SDS011;62001;53.366;6.636;2022-12-07T05:26:31;12.10;;;1.73;;
52940;SDS011;62001;53.366;6.636;2022-12-07T05:28:57;13.20;;;1.57;;
52940;SDS011;62001;53.366;6.636;2022-12-07T05:31:23;18.27;;;1.73;;
52940;SDS011;62001;53.366;6.636;2022-12-07T05:33:49;11.10;;;1.87;;
52940;SDS011;62001;53.366;6.636;2022-12-07T05:36:15;9.87;;;1.70;;
52940;SDS011;62001;53.366;6.636;2022-12-07T05:38:41;11.37;;;1.83;;
52940;SDS011;62001;53.366;6.636;2022-12-07T05:41:07;10.47;;;1.70;;
52940;SDS011;62001;53.366;6.636;2022-12-07T05:43:54;10.10;;;1.53;;
52940;SDS011;62001;53.366;6.636;2022-12-07T05:46:20;13.57;;;1.90;;
52940;SDS011;62001;53.366;6.636;2022-12-07T05:48:46;12.30;;;2.07;;
52940;SDS011;62001;53.366;6.636;2022-12-07T05:51:11;16.17;;;2.20;;
52940;SDS011;62001;53.366;6.636;2022-12-07T05:53:37;18.33;;;2.53;;
52940;SDS011;62001;53.366;6.636;2022-12-07T05:56:03;13.87;;;2.03;;
52940;SDS011;62001;53.366;6.636;2022-12-07T05:58:29;12.93;;;2.10;;
52940;SDS011;62001;53.366;6.636;2022-12-07T06:01:14;18.40;;;2.30;;
52940;SDS011;62001;53.366;6.636;2022-12-07T06:03:39;16.67;;;2.27;;
52940;SDS011;62001;53.366;6.636;2022-12-07T06:06:05;16.40;;;2.40;;
52940;SDS011;62001;53.366;6.636;2022-12-07T06:08:31;21.57;;;2.63;;
52940;SDS011;62001;53.366;6.636;2022-12-07T06:10:57;21.30;;;2.77;;
52940;SDS011;62001;53.366;6.636;2022-12-07T06:13:55;19.43;;;2.40;;
52940;SDS011;62001;53.366;6.636;2022-12-07T06:16:21;9.67;;;1.83;;
52940;SDS011;62001;53.366;6.636;2022-12-07T06:18:46;18.93;;;1.93;;
52940;SDS011;62001;53.366;6.636;2022-12-07T06:21:12;10.37;;;1.77;;
52940;SDS011;62001;53.366;6.636;2022-12-07T06:23:39;14.00;;;1.80;;
52940;SDS011;62001;53.366;6.636;2022-12-07T06:26:05;8.30;;;1.60;;
52940;SDS011;62001;53.366;6.636;2022-12-07T06:28:31;16.77;;;1.90;;
52940;SDS011;62001;53.366;6.636;2022-12-07T06:30:57;8.20;;;1.90;;
52940;SDS011;62001;53.366;6.636;2022-12-07T06:33:24;8.83;;;2.00;;
52940;SDS011;62001;53.366;6.636;2022-12-07T06:35:50;9.93;;;1.87;;
52940;SDS011;62001;53.366;6.636;2022-12-07T06:38:16;6.53;;;1.93;;
52940;SDS011;62001;53.366;6.636;2022-12-07T06:40:42;9.90;;;1.70;;
52940;SDS011;62001;53.366;6.636;2022-12-07T06:43:08;12.90;;;4.60;;
52940;SDS011;62001;53.366;6.636;2022-12-07T06:45:34;19.60;;;8.73;;
52940;SDS011;62001;53.366;6.636;2022-12-07T06:48:00;18.83;;;5.70;;
52940;SDS011;62001;53.366;6.636;2022-12-07T06:50:26;13.67;;;3.60;;
52940;SDS011;62001;53.366;6.636;2022-12-07T06:52:52;14.50;;;2.87;;
52940;SDS011;62001;53.366;6.636;2022-12-07T06:55:18;15.70;;;2.40;;
52940;SDS011;62001;53.366;6.636;2022-12-07T06:57:44;14.73;;;2.43;;
52940;SDS011;62001;53.366;6.636;2022-12-07T07:00:10;9.93;;;2.20;;
52940;SDS011;62001;53.366;6.636;2022-12-07T07:02:36;17.23;;;2.70;;
52940;SDS011;62001;53.366;6.636;2022-12-07T07:05:02;13.37;;;2.17;;
52940;SDS011;62001;53.366;6.636;2022-12-07T07:07:28;19.13;;;2.77;;
52940;SDS011;62001;53.366;6.636;2022-12-07T07:09:54;11.80;;;2.27;;
52940;SDS011;62001;53.366;6.636;2022-12-07T07:12:20;15.13;;;2.03;;
52940;SDS011;62001;53.366;6.636;2022-12-07T07:14:46;11.40;;;2.47;;
52940;SDS011;62001;53.366;6.636;2022-12-07T07:17:12;17.83;;;2.30;;
52940;SDS011;62001;53.366;6.636;2022-12-07T07:19:38;17.43;;;2.40;;
52940;SDS011;62001;53.366;6.636;2022-12-07T07:22:03;14.63;;;3.00;;
52940;SDS011;62001;53.366;6.636;2022-12-07T07:24:29;25.50;;;5.73;;
52940;SDS011;62001;53.366;6.636;2022-12-07T07:26:55;19.10;;;7.00;;
52940;SDS011;62001;53.366;6.636;2022-12-07T07:29:21;22.13;;;3.13;;
52940;SDS011;62001;53.366;6.636;2022-12-07T07:31:47;9.20;;;2.10;;
52940;SDS011;62001;53.366;6.636;2022-12-07T07:34:13;12.47;;;2.17;;
52940;SDS011;62001;53.366;6.636;2022-12-07T07:36:39;14.03;;;2.73;;
52940;SDS011;62001;53.366;6.636;2022-12-07T07:39:04;13.97;;;1.87;;
52940;SDS011;62001;53.366;6.636;2022-12-07T07:41:31;9.57;;;1.70;;
52940;SDS011;62001;53.366;6.636;2022-12-07T07:43:56;12.30;;;1.70;;
52940;SDS011;62001;53.366;6.636;2022-12-07T07:46:22;17.90;;;1.67;;
52940;SDS011;62001;53.366;6.636;2022-12-07T07:48:48;9.37;;;1.77;;
52940;SDS011;62001;53.366;6.636;2022-12-07T07:51:14;5.47;;;1.53;;
52940;SDS011;62001;53.366;6.636;2022-12-07T07:53:40;10.43;;;1.60;;
52940;SDS011;62001;53.366;6.636;2022-12-07T07:56:06;8.90;;;1.77;;
52940;SDS011;62001;53.366;6.636;2022-12-07T07:58:31;10.13;;;2.00;;
52940;SDS011;62001;53.366;6.636;2022-12-07T08:01:02;14.57;;;2.00;;
52940;SDS011;62001;53.366;6.636;2022-12-07T08:03:29;23.30;;;6.30;;
52940;SDS011;62001;53.366;6.636;2022-12-07T08:05:55;19.20;;;4.37;;
52940;SDS011;62001;53.366;6.636;2022-12-07T08:08:21;17.40;;;3.17;;
52940;SDS011;62001;53.366;6.636;2022-12-07T08:10:46;15.13;;;4.57;;
52940;SDS011;62001;53.366;6.636;2022-12-07T08:13:14;17.53;;;4.07;;
52940;SDS011;62001;53.366;6.636;2022-12-07T08:15:42;20.33;;;4.07;;
52940;SDS011;62001;53.366;6.636;2022-12-07T08:18:10;13.50;;;3.67;;
52940;SDS011;62001;53.366;6.636;2022-12-07T08:20:37;21.43;;;2.60;;
52940;SDS011;62001;53.366;6.636;2022-12-07T08:23:03;24.87;;;3.17;;
52940;SDS011;62001;53.366;6.636;2022-12-07T08:25:30;21.17;;;3.00;;
52940;SDS011;62001;53.366;6.636;2022-12-07T08:27:57;16.63;;;2.73;;
52940;SDS011;62001;53.366;6.636;2022-12-07T08:30:23;14.87;;;2.07;;
52940;SDS011;62001;53.366;6.636;2022-12-07T08:32:49;16.33;;;2.00;;
52940;SDS011;62001;53.366;6.636;2022-12-07T08:35:15;15.77;;;2.10;;
52940;SDS011;62001;53.366;6.636;2022-12-07T08:37:41;13.90;;;2.00;;
52940;SDS011;62001;53.366;6.636;2022-12-07T08:40:08;18.03;;;2.03;;
52940;SDS011;62001;53.366;6.636;2022-12-07T08:42:35;13.73;;;2.07;;
52940;SDS011;62001;53.366;6.636;2022-12-07T08:45:11;12.82;;;2.13;;
52940;SDS011;62001;53.366;6.636;2022-12-07T08:50:19;10.47;;;1.70;;
52940;SDS011;62001;53.366;6.636;2022-12-07T08:52:50;10.53;;;1.30;;
52940;SDS011;62001;53.366;6.636;2022-12-07T08:55:19;5.77;;;1.00;;
52940;SDS011;62001;53.366;6.636;2022-12-07T08:57:45;5.43;;;1.27;;
52940;SDS011;62001;53.366;6.636;2022-12-07T09:00:11;5.30;;;2.50;;
52940;SDS011;62001;53.366;6.636;2022-12-07T09:02:38;7.87;;;2.00;;
52940;SDS011;62001;53.366;6.636;2022-12-07T09:05:04;7.07;;;2.80;;
52940;SDS011;62001;53.366;6.636;2022-12-07T09:07:30;7.07;;;2.97;;
52940;SDS011;62001;53.366;6.636;2022-12-07T09:09:59;9.63;;;3.10;;
52940;SDS011;62001;53.366;6.636;2022-12-07T09:12:25;15.50;;;7.63;;
52940;SDS011;62001;53.366;6.636;2022-12-07T09:14:50;12.43;;;5.40;;
52940;SDS011;62001;53.366;6.636;2022-12-07T09:17:16;7.77;;;2.80;;
52940;SDS011;62001;53.366;6.636;2022-12-07T09:19:42;7.83;;;3.03;;
52940;SDS011;62001;53.366;6.636;2022-12-07T09:22:08;12.07;;;3.47;;
52940;SDS011;62001;53.366;6.636;2022-12-07T09:24:34;10.37;;;2.70;;
52940;SDS011;62001;53.366;6.636;2022-12-07T09:27:00;13.37;;;2.67;;
52940;SDS011;62001;53.366;6.636;2022-12-07T09:29:26;8.10;;;2.00;;
52940;SDS011;62001;53.366;6.636;2022-12-07T09:31:52;13.17;;;1.57;;
52940;SDS011;62001;53.366;6.636;2022-12-07T09:34:18;13.43;;;2.03;;
52940;SDS011;62001;53.366;6.636;2022-12-07T09:36:44;5.77;;;1.20;;
52940;SDS011;62001;53.366;6.636;2022-12-07T09:39:10;6.93;;;1.40;;
52940;SDS011;62001;53.366;6.636;2022-12-07T09:41:39;6.13;;;1.67;;
52940;SDS011;62001;53.366;6.636;2022-12-07T09:44:11;10.10;;;1.60;;
52940;SDS011;62001;53.366;6.636;2022-12-07T09:46:42;7.60;;;1.30;;
52940;SDS011;62001;53.366;6.636;2022-12-07T09:49:12;8.70;;;1.63;;
52940;SDS011;62001;53.366;6.636;2022-12-07T09:51:44;7.00;;;1.57;;
52940;SDS011;62001;53.366;6.636;2022-12-07T09:54:14;9.93;;;1.57;;
52940;SDS011;62001;53.366;6.636;2022-12-07T09:56:42;9.67;;;1.60;;
52940;SDS011;62001;53.366;6.636;2022-12-07T09:59:12;9.70;;;1.83;;
52940;SDS011;62001;53.366;6.636;2022-12-07T10:01:46;12.07;;;1.80;;
52940;SDS011;62001;53.366;6.636;2022-12-07T10:04:16;14.77;;;2.40;;
52940;SDS011;62001;53.366;6.636;2022-12-07T10:06:46;15.23;;;2.17;;
52940;SDS011;62001;53.366;6.636;2022-12-07T10:09:13;13.30;;;2.27;;
52940;SDS011;62001;53.366;6.636;2022-12-07T10:16:59;15.67;;;1.93;;
52940;SDS011;62001;53.366;6.636;2022-12-07T10:19:26;7.27;;;1.87;;
52940;SDS011;62001;53.366;6.636;2022-12-07T10:22:01;9.50;;;1.60;;
52940;SDS011;62001;53.366;6.636;2022-12-07T10:24:40;12.50;;;1.40;;
52940;SDS011;62001;53.366;6.636;2022-12-07T10:27:17;7.67;;;1.53;;
52940;SDS011;62001;53.366;6.636;2022-12-07T10:29:47;13.47;;;2.10;;
52940;SDS011;62001;53.366;6.636;2022-12-07T10:34:41;11.33;;;1.57;;
52940;SDS011;62001;53.366;6.636;2022-12-07T10:37:15;10.40;;;1.60;;
52940;SDS011;62001;53.366;6.636;2022-12-07T10:39:46;7.27;;;1.70;;
52940;SDS011;62001;53.366;6.636;2022-12-07T10:44:48;12.93;;;2.23;;
52940;SDS011;62001;53.366;6.636;2022-12-07T10:50:02;9.10;;;1.80;;
52940;SDS011;62001;53.366;6.636;2022-12-07T10:55:45;12.43;;;1.03;;
52940;SDS011;62001;53.366;6.636;2022-12-07T11:01:24;6.43;;;1.00;;
52940;SDS011;62001;53.366;6.636;2022-12-07T11:17:36;7.70;;;1.80;;
52940;SDS011;62001;53.366;6.636;2022-12-07T11:25:47;7.60;;;1.27;;
52940;SDS011;62001;53.366;6.636;2022-12-07T11:34:00;6.90;;;1.37;;
52940;SDS011;62001;53.366;6.636;2022-12-07T11:36:42;7.67;;;1.80;;
52940;SDS011;62001;53.366;6.636;2022-12-07T11:41:46;10.70;;;1.60;;
52940;SDS011;62001;53.366;6.636;2022-12-07T11:44:36;11.37;;;1.70;;
52940;SDS011;62001;53.366;6.636;2022-12-07T11:50:14;7.73;;;1.60;;
52940;SDS011;62001;53.366;6.636;2022-12-07T11:52:57;3.57;;;0.83;;
52940;SDS011;62001;53.366;6.636;2022-12-07T11:55:49;4.97;;;0.80;;
52940;SDS011;62001;53.366;6.636;2022-12-07T12:00:51;5.25;;;1.10;;
52940;SDS011;62001;53.366;6.636;2022-12-07T12:03:30;8.10;;;2.00;;
52940;SDS011;62001;53.366;6.636;2022-12-07T12:06:00;6.53;;;1.43;;
52940;SDS011;62001;53.366;6.636;2022-12-07T12:08:28;11.17;;;2.60;;
52940;SDS011;62001;53.366;6.636;2022-12-07T12:13:56;9.00;;;2.40;;
52940;SDS011;62001;53.366;6.636;2022-12-07T12:21:42;8.23;;;1.10;;
52940;SDS011;62001;53.366;6.636;2022-12-07T12:24:18;5.17;;;1.37;;
52940;SDS011;62001;53.366;6.636;2022-12-07T12:26:52;4.82;;;1.20;;
52940;SDS011;62001;53.366;6.636;2022-12-07T12:29:30;5.38;;;0.90;;
52940;SDS011;62001;53.366;6.636;2022-12-07T12:32:15;6.47;;;1.43;;
52940;SDS011;62001;53.366;6.636;2022-12-07T12:42:43;8.82;;;1.70;;
52940;SDS011;62001;53.366;6.636;2022-12-07T12:45:32;8.03;;;2.43;;
52940;SDS011;62001;53.366;6.636;2022-12-07T12:48:04;14.97;;;2.00;;
52940;SDS011;62001;53.366;6.636;2022-12-07T12:50:50;11.00;;;1.70;;
52940;SDS011;62001;53.366;6.636;2022-12-07T12:54:02;7.37;;;1.30;;
52940;SDS011;62001;53.366;6.636;2022-12-07T12:56:35;5.88;;;1.35;;
52940;SDS011;62001;53.366;6.636;2022-12-07T12:59:28;3.20;;;0.80;;
52940;SDS011;62001;53.366;6.636;2022-12-07T13:15:49;9.20;;;2.10;;
52940;SDS011;62001;53.366;6.636;2022-12-07T13:26:20;6.70;;;1.30;;
52940;SDS011;62001;53.366;6.636;2022-12-07T13:31:45;5.80;;;2.50;;
52940;SDS011;62001;53.366;6.636;2022-12-07T13:36:59;5.87;;;1.73;;
52940;SDS011;62001;53.366;6.636;2022-12-07T13:39:44;8.50;;;1.00;;
52940;SDS011;62001;53.366;6.636;2022-12-07T13:42:25;3.47;;;0.83;;
52940;SDS011;62001;53.366;6.636;2022-12-07T13:44:53;7.13;;;2.10;;
52940;SDS011;62001;53.366;6.636;2022-12-07T13:47:21;10.80;;;4.27;;
52940;SDS011;62001;53.366;6.636;2022-12-07T13:52:49;12.80;;;3.27;;
52940;SDS011;62001;53.366;6.636;2022-12-07T13:55:19;10.27;;;1.98;;
52940;SDS011;62001;53.366;6.636;2022-12-07T13:57:47;12.23;;;1.80;;
52940;SDS011;62001;53.366;6.636;2022-12-07T14:00:19;5.05;;;1.95;;
52940;SDS011;62001;53.366;6.636;2022-12-07T14:02:56;5.47;;;2.20;;
52940;SDS011;62001;53.366;6.636;2022-12-07T14:05:25;9.27;;;2.57;;
52940;SDS011;62001;53.366;6.636;2022-12-07T14:08:05;13.57;;;4.80;;
52940;SDS011;62001;53.366;6.636;2022-12-07T14:10:39;10.20;;;3.50;;
52940;SDS011;62001;53.366;6.636;2022-12-07T14:16:01;8.60;;;1.80;;
52940;SDS011;62001;53.366;6.636;2022-12-07T14:18:42;7.13;;;1.50;;
52940;SDS011;62001;53.366;6.636;2022-12-07T14:23:44;13.70;;;4.43;;
52940;SDS011;62001;53.366;6.636;2022-12-07T14:26:11;10.03;;;3.53;;
52940;SDS011;62001;53.366;6.636;2022-12-07T14:28:41;8.97;;;2.97;;
52940;SDS011;62001;53.366;6.636;2022-12-07T14:31:18;8.33;;;2.70;;
52940;SDS011;62001;53.366;6.636;2022-12-07T14:33:49;10.18;;;2.85;;
52940;SDS011;62001;53.366;6.636;2022-12-07T14:36:15;7.67;;;1.90;;
52940;SDS011;62001;53.366;6.636;2022-12-07T14:38:41;6.03;;;1.80;;
52940;SDS011;62001;53.366;6.636;2022-12-07T14:41:10;6.00;;;2.30;;
52940;SDS011;62001;53.366;6.636;2022-12-07T14:43:59;14.30;;;3.37;;
52940;SDS011;62001;53.366;6.636;2022-12-07T14:46:25;8.67;;;3.00;;
52940;SDS011;62001;53.366;6.636;2022-12-07T14:48:51;5.57;;;2.30;;
52940;SDS011;62001;53.366;6.636;2022-12-07T14:51:17;5.73;;;1.20;;
52940;SDS011;62001;53.366;6.636;2022-12-07T14:53:44;8.00;;;1.57;;
52940;SDS011;62001;53.366;6.636;2022-12-07T14:56:13;11.53;;;1.70;;
52940;SDS011;62001;53.366;6.636;2022-12-07T14:58:42;7.10;;;1.17;;
52940;SDS011;62001;53.366;6.636;2022-12-07T15:01:09;8.70;;;1.20;;
52940;SDS011;62001;53.366;6.636;2022-12-07T15:03:39;7.38;;;1.30;;
52940;SDS011;62001;53.366;6.636;2022-12-07T15:06:10;8.37;;;1.20;;
52940;SDS011;62001;53.366;6.636;2022-12-07T15:08:39;8.32;;;1.08;;
52940;SDS011;62001;53.366;6.636;2022-12-07T15:11:05;5.73;;;1.03;;
52940;SDS011;62001;53.366;6.636;2022-12-07T15:13:31;3.90;;;0.80;;
52940;SDS011;62001;53.366;6.636;2022-12-07T15:16:17;4.27;;;0.87;;
52940;SDS011;62001;53.366;6.636;2022-12-07T15:18:45;1.48;;;0.63;;
52940;SDS011;62001;53.366;6.636;2022-12-07T15:21:14;3.40;;;0.73;;
52940;SDS011;62001;53.366;6.636;2022-12-07T15:23:41;3.17;;;0.63;;
52940;SDS011;62001;53.366;6.636;2022-12-07T15:26:07;2.47;;;0.70;;
52940;SDS011;62001;53.366;6.636;2022-12-07T15:28:35;5.73;;;1.20;;
52940;SDS011;62001;53.366;6.636;2022-12-07T15:31:01;6.30;;;1.90;;
52940;SDS011;62001;53.366;6.636;2022-12-07T15:33:27;7.00;;;2.00;;
52940;SDS011;62001;53.366;6.636;2022-12-07T15:35:53;10.43;;;2.57;;
52940;SDS011;62001;53.366;6.636;2022-12-07T15:38:19;6.03;;;1.53;;
52940;SDS011;62001;53.366;6.636;2022-12-07T15:40:48;6.70;;;2.43;;
52940;SDS011;62001;53.366;6.636;2022-12-07T15:43:14;7.23;;;2.97;;
52940;SDS011;62001;53.366;6.636;2022-12-07T15:45:58;7.07;;;3.30;;
52940;SDS011;62001;53.366;6.636;2022-12-07T15:48:24;9.47;;;2.30;;
52940;SDS011;62001;53.366;6.636;2022-12-07T15:50:50;4.97;;;2.07;;
52940;SDS011;62001;53.366;6.636;2022-12-07T15:53:16;10.80;;;2.60;;
52940;SDS011;62001;53.366;6.636;2022-12-07T15:55:42;8.53;;;2.57;;
52940;SDS011;62001;53.366;6.636;2022-12-07T15:58:08;6.37;;;2.80;;
52940;SDS011;62001;53.366;6.636;2022-12-07T16:00:34;10.03;;;2.53;;
52940;SDS011;62001;53.366;6.636;2022-12-07T16:03:00;14.37;;;5.63;;
52940;SDS011;62001;53.366;6.636;2022-12-07T16:05:25;16.97;;;7.23;;
52940;SDS011;62001;53.366;6.636;2022-12-07T16:07:51;19.53;;;6.67;;
52940;SDS011;62001;53.366;6.636;2022-12-07T16:10:17;15.50;;;4.90;;
52940;SDS011;62001;53.366;6.636;2022-12-07T16:12:43;11.13;;;3.30;;
52940;SDS011;62001;53.366;6.636;2022-12-07T16:15:09;9.13;;;2.63;;
52940;SDS011;62001;53.366;6.636;2022-12-07T16:17:35;9.00;;;1.83;;
52940;SDS011;62001;53.366;6.636;2022-12-07T16:20:00;7.27;;;1.40;;
52940;SDS011;62001;53.366;6.636;2022-12-07T16:22:26;10.80;;;1.77;;
52940;SDS011;62001;53.366;6.636;2022-12-07T16:24:52;4.27;;;1.30;;
52940;SDS011;62001;53.366;6.636;2022-12-07T16:27:18;13.87;;;6.17;;
52940;SDS011;62001;53.366;6.636;2022-12-07T16:29:44;12.87;;;4.70;;
52940;SDS011;62001;53.366;6.636;2022-12-07T16:32:10;7.07;;;2.23;;
52940;SDS011;62001;53.366;6.636;2022-12-07T16:34:36;5.07;;;1.70;;
52940;SDS011;62001;53.366;6.636;2022-12-07T16:37:01;15.10;;;2.00;;
52940;SDS011;62001;53.366;6.636;2022-12-07T16:39:27;3.97;;;1.67;;
52940;SDS011;62001;53.366;6.636;2022-12-07T16:41:53;9.87;;;1.53;;
52940;SDS011;62001;53.366;6.636;2022-12-07T16:44:19;9.27;;;2.40;;
52940;SDS011;62001;53.366;6.636;2022-12-07T16:46:45;12.80;;;4.40;;
52940;SDS011;62001;53.366;6.636;2022-12-07T16:49:12;7.47;;;3.77;;
52940;SDS011;62001;53.366;6.636;2022-12-07T16:51:38;10.67;;;5.77;;
52940;SDS011;62001;53.366;6.636;2022-12-07T16:54:04;9.93;;;3.63;;
52940;SDS011;62001;53.366;6.636;2022-12-07T16:56:30;9.30;;;4.43;;
52940;SDS011;62001;53.366;6.636;2022-12-07T16:58:59;6.70;;;3.07;;
52940;SDS011;62001;53.366;6.636;2022-12-07T17:01:25;11.53;;;2.97;;
52940;SDS011;62001;53.366;6.636;2022-12-07T17:03:53;10.80;;;3.47;;
52940;SDS011;62001;53.366;6.636;2022-12-07T17:06:23;7.87;;;2.77;;
52940;SDS011;62001;53.366;6.636;2022-12-07T17:08:50;7.97;;;2.20;;
52940;SDS011;62001;53.366;6.636;2022-12-07T17:11:18;5.60;;;2.23;;
52940;SDS011;62001;53.366;6.636;2022-12-07T17:13:45;5.17;;;2.10;;
52940;SDS011;62001;53.366;6.636;2022-12-07T17:16:30;4.47;;;1.50;;
52940;SDS011;62001;53.366;6.636;2022-12-07T17:18:56;5.00;;;1.67;;
52940;SDS011;62001;53.366;6.636;2022-12-07T17:21:22;9.47;;;1.97;;